Mersa Matruh, Egypt
Current Conditions -  °F | °C
As of 1:00 PM on Friday 31 Oct 2014 (Local Time) from HEMM Reporting Station
Few Clouds Few Clouds  
Wind Chill: 77°   Ceiling: Unl
Heat Index: 79°   Visibility: 6mi
Dew Point: 59°   Wind: 17mph
Humidity: 54%   Direction: 340°NNW
Pressure: 30"   Gusts: NA
Location:  31.32°N, 27.22°E
Report Text: HEMM 311100Z 34015KT 9999 FEW020 25/15 Q1016 NOSIG
Loading
Personal Weather Stations






























Interactive Weather Map
Tropical Storm Tracking
New forecast layout! Learn more

10-Day Weather Forecast

Advertisements
Track Severe Weather on mobile